Terminal Aerodrome Forecast
Issued by NWS Cleveland, OH

Home | Current Version | Previous Version | Graphics & Text | Print | Product List | Glossary On
Versions: 1 2 3 4 5 6 7 8 9 10 11 12 13 14 15 16 17 18 19 20 21 22 23 24 25 26 27 28 29 30 31 32 33
000
FTUS41 KCLE 281100
TAFCLE
TAF
KCLE 281120Z 2812/0118 19003KT P6SM BKN200
     FM282000 13005KT P6SM OVC100
     FM010400 13005KT P6SM OVC050
     FM010700 14005KT 2SM -SN SCT012 OVC020
     FM011100 16005KT 1SM -SN BR OVC008=

USA.gov is the U.S. government's official web portal to all federal, state and local government web resources and services.